Overview Statistics Trail Chart Weather Telemetry Raw packets
 

This is the latest recevied weather packets stored in our database for station/object AG1T-20. If no packets are shown the sender has not sent any weather packets the latest 10 day(s).

<< 7 8 9 10 11 12 13 >>
Time Temp. Humidity Pressure Rain* Wind** Luminosity Snow
1788484204 24.44° C 27% 1018 hPa 0 mm - 28 W/m² -
1788483605 27.22° C 23% 1016.5 hPa 0 mm - 31 W/m² -
1788483004 27.22° C 22% 1016.5 hPa 0 mm - 36 W/m² -
1788482405 26.11° C 23% 1017 hPa 0 mm - 43 W/m² -
1788481804 28.89° C 19% 1015.6 hPa 0 mm - 48 W/m² -
1788481204 28.33° C 20% 1015.6 hPa 0 mm - 53 W/m² -
1788480605 28.89° C 23% 1015.9 hPa 0 mm - 63 W/m² -
1788480005 28.89° C 20% 1015.6 hPa 0 mm - 74 W/m² -
1788479404 28.89° C 17% 1015.9 hPa 0 mm - 89 W/m² -
1788478804 28.33° C 18% 1015.8 hPa 0 mm - 106 W/m² -
1788478204 28.33° C 21% 1016.2 hPa 0 mm - 127 W/m² -
1788477604 27.78° C 18% 1016.4 hPa 0 mm - 150 W/m² -
1788477004 27.78° C 20% 1016.4 hPa 0 mm - 176 W/m² -
1788476404 27.78° C 20% 1016.5 hPa 0 mm - 204 W/m² -
1788475804 27.22° C 21% 1017.2 hPa 0 mm - 232 W/m² -
1788475205 27.22° C 19% 1017.1 hPa 0 mm - 264 W/m² -
1788474604 27.22° C 18% 1017.1 hPa 0 mm - 300 W/m² -
1788474004 27.22° C 19% 1017.3 hPa 0 mm - 313 W/m² -
1788473426 27.22° C 21% 1017.3 hPa 0 mm - 357 W/m² -
1788472804 26.67° C 19% 1017.8 hPa 0 mm - 338 W/m² -
1788472204 25.56° C 20% 1018.7 hPa 0 mm - 440 W/m² -
1788471605 25.56° C 21% 1018.6 hPa 0 mm - 507 W/m² -
1788471004 25.56° C 19% 1018.8 hPa 0 mm - 288 W/m² -
1788470404 25.56° C 18% 1019.1 hPa 0 mm - 516 W/m² -
1788469804 25.56° C 18% 1019.4 hPa 0 mm - 545 W/m² -

* Rain latest hour (hover to see other rain measurements)
** Current wind speed in m/s (hover to see current wind gust speed)